ADDS METAR Data INFO
IDs: Format: Raw Decoded Include TAF

Data at: 0840 UTC 21 Oct 2017

KHAE 210815Z AUTO 15007KT 10SM CLR 17/08 A2998 RMK AO2
KHAE 210755Z AUTO 15007KT 10SM CLR 17/08 A2997 RMK AO2 LTG DSNT NW
KHAE 210735Z AUTO 16008KT 10SM CLR 17/08 A2998 RMK AO2
KHAE 210715Z AUTO 16007KT 10SM CLR 17/08 A2999 RMK AO2
KHAE 210655Z AUTO 15006KT 10SM CLR 17/08 A2998 RMK AO2
KHAE 210635Z AUTO 15007KT 10SM CLR 18/08 A2999 RMK AO2
KHAE 210615Z AUTO 16007KT 10SM CLR 18/08 A2999 RMK AO2
KHAE 210555Z AUTO 15008KT 10SM CLR 18/08 A2999 RMK AO2
KHAE 210535Z AUTO 15008KT 10SM SCT110 18/08 A2999 RMK AO2
KHAE 210515Z AUTO 16006KT 10SM SCT110 18/08 A2999 RMK AO2
KHAE 210455Z AUTO 17007KT 10SM CLR 18/08 A3000 RMK AO2
KHAE 210435Z AUTO 17007KT 10SM CLR 19/08 A2999 RMK AO2
KHAE 210415Z AUTO 17007KT 10SM CLR 20/07 A2999 RMK AO2
KHAE 210355Z AUTO 16010G15KT 10SM CLR 20/07 A2999 RMK AO2
KHAE 210335Z AUTO 16009KT 10SM CLR 19/07 A2999 RMK AO2
KHAE 210315Z AUTO 16007KT 10SM CLR 20/07 A2999 RMK AO2
KHAE 210255Z AUTO 16008KT 10SM CLR 20/07 A2999 RMK AO2
KHAE 210235Z AUTO 16006KT 10SM CLR 20/07 A2999 RMK AO2
KHAE 210215Z AUTO 16005KT 10SM CLR 20/07 A2999 RMK AO2
KHAE 210155Z AUTO 16005KT 10SM CLR 20/07 A2998 RMK AO2
KHAE 210135Z AUTO 15005KT 10SM CLR 20/07 A2998 RMK AO2
KHAE 210115Z AUTO 17006KT 10SM CLR 20/07 A2999 RMK AO2
KHAE 210055Z AUTO 16007KT 10SM CLR 20/07 A2999 RMK AO2
KHAE 210035Z AUTO 16007KT 10SM CLR 21/08 A2999 RMK AO2
KHAE 210015Z AUTO 15009KT 10SM CLR 21/08 A2998 RMK AO2
KHAE 202355Z AUTO 15007KT 10SM CLR 21/07 A2999 RMK AO2
KHAE 202335Z AUTO 14005KT 10SM CLR 21/07 A2998 RMK AO2
KHAE 202315Z AUTO 14004KT 10SM CLR 21/06 A2999 RMK AO2
KHAE 202255Z AUTO 15004KT 10SM CLR 21/05 A3000 RMK AO2
KHAE 202235Z AUTO 15005KT 10SM CLR 22/05 A3000 RMK AO2
KHAE 202215Z AUTO 16007KT 10SM CLR 23/03 A3000 RMK AO2
KHAE 202155Z AUTO 16008KT 10SM CLR 23/03 A3000 RMK AO2
KHAE 202135Z AUTO 15009G15KT 10SM CLR 24/03 A3001 RMK AO2
KHAE 202115Z AUTO 14008KT 7SM CLR 25/04 A3001 RMK AO2
KHAE 202055Z AUTO 16006KT 10SM CLR 24/05 A3002 RMK AO2
KHAE 202035Z AUTO 16007G15KT 10SM CLR 24/03 A3003 RMK AO2
KHAE 202015Z AUTO 18008KT 10SM CLR 25/06 A3003 RMK AO2
KHAE 201955Z AUTO 15008KT 123V183 10SM CLR 23/06 A3004 RMK AO2
KHAE 201935Z AUTO 17009KT 10SM CLR 24/05 A3005 RMK AO2
KHAE 201915Z AUTO 17006KT 10SM CLR 25/06 A3005 RMK AO2
KHAE 201855Z AUTO 17006KT 10SM CLR 23/07 A3007 RMK AO2
KHAE 201835Z AUTO 15006KT 10SM CLR 23/07 A3008 RMK AO2
KHAE 201815Z AUTO 15009KT 10SM CLR 23/08 A3009 RMK AO2
KHAE 201755Z AUTO 18008KT 10SM CLR 23/08 A3010 RMK AO2
KHAE 201735Z AUTO 17006KT 10SM CLR 21/09 A3012 RMK AO2
KHAE 201715Z AUTO 18010KT 10SM CLR 22/09 A3013 RMK AO2
KHAE 201655Z AUTO 19009G15KT 10SM CLR 21/09 A3015 RMK AO2
KHAE 201635Z AUTO 19008KT 10SM CLR 21/09 A3015 RMK AO2
KHAE 201615Z AUTO 17006KT 10SM CLR 20/09 A3015 RMK AO2
KHAE 201555Z AUTO 17006KT 10SM CLR 20/09 A3015 RMK AO2
KHAE 201535Z AUTO 20008KT 10SM CLR 20/10 A3016 RMK AO2
KHAE 201515Z AUTO 16007KT 10SM CLR 19/09 A3016 RMK AO2
KHAE 201455Z AUTO 18005KT 10SM CLR 18/09 A3016 RMK AO2
KHAE 201435Z AUTO 18007KT 10SM CLR 17/09 A3017 RMK AO2
KHAE 201415Z AUTO 18007KT 10SM CLR 17/09 A3018 RMK AO2
KHAE 201355Z AUTO 17006KT 10SM CLR 16/08 A3017 RMK AO2
KHAE 201335Z AUTO 17005KT 10SM CLR 15/08 A3017 RMK AO2
KHAE 201315Z AUTO 17005KT 10SM CLR 14/08 A3017 RMK AO2
KHAE 201255Z AUTO 17005KT 10SM CLR 13/08 A3017 RMK AO2
KHAE 201235Z AUTO 17005KT 10SM CLR 12/08 A3017 RMK AO2
KHAE 201215Z AUTO 18006KT 10SM CLR 12/07 A3017 RMK AO2
KHAE 201155Z AUTO 18006KT 10SM CLR 13/07 A3017 RMK AO2
KHAE 201135Z AUTO 17006KT 10SM CLR 13/07 A3017 RMK AO2
KHAE 201115Z AUTO 17005KT 10SM CLR 13/07 A3016 RMK AO2
KHAE 201055Z AUTO 17005KT 10SM CLR 13/07 A3016 RMK AO2
KHAE 201035Z AUTO 18006KT 10SM CLR 13/07 A3016 RMK AO2
KHAE 201015Z AUTO 19007KT 10SM CLR 13/07 A3015 RMK AO2
KHAE 200955Z AUTO 19007KT 10SM CLR 13/07 A3015 RMK AO2
KHAE 200935Z AUTO 18007KT 10SM CLR 13/07 A3014 RMK AO2
KHAE 200915Z AUTO 18007KT 10SM CLR 13/07 A3014 RMK AO2
KHAE 200855Z AUTO 18007KT 10SM CLR 13/07 A3013 RMK AO2
KHAE 200835Z AUTO 18006KT 7SM CLR 13/07 A3013 RMK AO2
KHAE 200815Z AUTO 18006KT 10SM CLR 14/07 A3013 RMK AO2
KHAE 200755Z AUTO 18006KT 7SM CLR 14/07 A3013 RMK AO2
KHAE 200735Z AUTO 18007KT 7SM CLR 15/07 A3013 RMK AO2
KHAE 200715Z AUTO 18006KT 7SM CLR 15/07 A3013 RMK AO2
KHAE 200655Z AUTO 19006KT 7SM CLR 15/08 A3013 RMK AO2
KHAE 200635Z AUTO 18006KT 10SM CLR 14/08 A3013 RMK AO2
KHAE 200615Z AUTO 19006KT 10SM CLR 15/08 A3013 RMK AO2
KHAE 200555Z AUTO 18005KT 10SM CLR 15/08 A3012 RMK AO2
KHAE 200535Z AUTO 17005KT 10SM CLR 16/08 A3012 RMK AO2
KHAE 200515Z AUTO 16005KT 10SM CLR 16/08 A3012 RMK AO2
KHAE 200455Z AUTO 16005KT 10SM CLR 16/08 A3012 RMK AO2
KHAE 200435Z AUTO 15005KT 10SM CLR 17/08 A3012 RMK AO2
KHAE 200415Z AUTO 16004KT 10SM CLR 17/08 A3013 RMK AO2
KHAE 200355Z AUTO 15004KT 10SM CLR 17/08 A3012 RMK AO2
KHAE 200335Z AUTO 16004KT 10SM CLR 18/08 A3012 RMK AO2
KHAE 200315Z AUTO 15004KT 10SM CLR 18/08 A3013 RMK AO2
KHAE 200255Z AUTO 15004KT 10SM CLR 18/08 A3013 RMK AO2
KHAE 200235Z AUTO 15005KT 10SM CLR 18/07 A3012 RMK AO2
KHAE 200215Z AUTO 15004KT 10SM CLR 18/07 A3012 RMK AO2
KHAE 200155Z AUTO 15004KT 10SM CLR 18/07 A3012 RMK AO2
KHAE 200135Z AUTO 16004KT 10SM CLR 18/07 A3012 RMK AO2
KHAE 200115Z AUTO 16004KT 10SM CLR 19/07 A3013 RMK AO2
KHAE 200055Z AUTO 15005KT 10SM CLR 19/07 A3013 RMK AO2
KHAE 200035Z AUTO 16004KT 10SM CLR 20/07 A3013 RMK AO2
KHAE 200015Z AUTO 15004KT 10SM CLR 21/07 A3013 RMK AO2
KHAE 192355Z AUTO 15004KT 10SM CLR 21/07 A3012 RMK AO2
KHAE 192335Z AUTO 15003KT 10SM CLR 22/07 A3012 RMK AO2
KHAE 192315Z AUTO 16003KT 10SM CLR 22/07 A3012 RMK AO2
KHAE 192255Z AUTO 16003KT 10SM CLR 23/06 A3011 RMK AO2
KHAE 192235Z AUTO 17003KT 10SM CLR 25/06 A3011 RMK AO2
KHAE 192215Z AUTO 17004KT 10SM CLR 26/05 A3011 RMK AO2
KHAE 192155Z AUTO 16005KT 10SM CLR 26/05 A3011 RMK AO2
KHAE 192135Z AUTO 18004KT 10SM CLR 26/05 A3011 RMK AO2
KHAE 192115Z AUTO 16004KT 10SM CLR 27/04 A3012 RMK AO2
KHAE 192055Z AUTO 20005KT 10SM CLR 27/06 A3012 RMK AO2